createdAt,value
2018-07-24T00:01:25.610Z,13.30
2018-07-24T00:03:54.830Z,13.30
2018-07-24T00:06:24.392Z,13.30
2018-07-24T00:08:53.664Z,13.20
2018-07-24T00:11:23.062Z,13.20
2018-07-24T00:13:52.340Z,13.10
2018-07-24T00:16:21.619Z,13.00
2018-07-24T00:18:50.903Z,12.90
2018-07-24T00:21:20.134Z,12.90
2018-07-24T00:23:49.414Z,13.00
2018-07-24T00:26:18.669Z,13.00
2018-07-24T00:28:47.902Z,13.10
2018-07-24T00:31:17.286Z,13.00
2018-07-24T00:33:46.513Z,12.80
2018-07-24T00:36:15.853Z,12.80
2018-07-24T00:38:45.278Z,12.80
2018-07-24T00:41:14.553Z,12.80
2018-07-24T00:43:43.847Z,12.80
2018-07-24T00:46:13.177Z,12.80
2018-07-24T00:48:42.612Z,12.70
2018-07-24T00:51:11.872Z,12.70
2018-07-24T00:53:41.117Z,12.70
2018-07-24T00:56:10.328Z,12.60
2018-07-24T00:58:39.594Z,12.70
2018-07-24T01:01:08.868Z,12.70
2018-07-24T01:03:38.084Z,12.60
2018-07-24T01:06:07.321Z,12.60
2018-07-24T01:08:36.602Z,12.60
2018-07-24T01:11:05.818Z,12.60
2018-07-24T01:13:35.051Z,12.60
2018-07-24T01:16:04.332Z,12.70
2018-07-24T01:18:33.571Z,12.60
2018-07-24T01:21:02.856Z,12.60
2018-07-24T01:23:32.139Z,12.50
2018-07-24T01:26:01.445Z,12.50
2018-07-24T01:28:30.685Z,12.50
2018-07-24T01:30:59.941Z,12.50
2018-07-24T01:33:29.179Z,12.40
2018-07-24T01:35:58.439Z,12.50
2018-07-24T01:38:27.678Z,12.40
2018-07-24T01:40:56.917Z,12.40
2018-07-24T01:43:26.165Z,12.40
2018-07-24T01:45:55.396Z,12.40
2018-07-24T01:48:24.634Z,12.30
2018-07-24T01:50:53.849Z,12.30
2018-07-24T01:53:23.157Z,12.30
2018-07-24T01:55:52.381Z,12.20
2018-07-24T01:58:21.604Z,12.20
2018-07-24T02:00:50.864Z,12.20
2018-07-24T02:03:20.147Z,12.20
2018-07-24T02:05:49.425Z,12.30
2018-07-24T02:08:18.639Z,12.10
2018-07-24T02:10:47.888Z,12.10
2018-07-24T02:13:17.109Z,12.10
2018-07-24T02:15:46.452Z,12.10
2018-07-24T02:18:15.729Z,12.20
2018-07-24T02:20:45.014Z,12.20
2018-07-24T02:23:14.248Z,12.20
2018-07-24T02:25:43.498Z,12.20
2018-07-24T02:28:12.717Z,12.10
2018-07-24T02:30:42.092Z,12.10
2018-07-24T02:33:11.349Z,12.20
2018-07-24T02:35:40.622Z,12.20
2018-07-24T02:38:09.857Z,12.30
2018-07-24T02:40:39.127Z,12.20
2018-07-24T02:43:08.468Z,12.20
2018-07-24T02:45:37.677Z,12.20
2018-07-24T02:48:06.920Z,12.10
2018-07-24T02:50:36.148Z,12.00
2018-07-24T02:53:05.439Z,12.00
2018-07-24T02:55:34.697Z,12.00
2018-07-24T02:58:03.920Z,12.10
2018-07-24T03:00:38.595Z,12.00
2018-07-24T03:03:07.823Z,12.00
2018-07-24T03:05:37.041Z,12.10
2018-07-24T03:08:06.345Z,12.10
2018-07-24T03:10:35.674Z,12.10
2018-07-24T03:13:04.913Z,12.00
2018-07-24T03:15:34.121Z,12.10
2018-07-24T03:18:03.379Z,12.00
2018-07-24T03:20:32.598Z,12.00
2018-07-24T03:23:01.821Z,12.00
2018-07-24T03:25:31.067Z,11.90
2018-07-24T03:28:00.303Z,11.90
2018-07-24T03:30:29.522Z,12.00
2018-07-24T03:32:58.841Z,11.90
2018-07-24T03:35:28.088Z,11.80
2018-07-24T03:37:57.400Z,11.80
2018-07-24T03:40:26.628Z,11.80
2018-07-24T03:42:55.901Z,11.90
2018-07-24T03:45:25.296Z,11.90
2018-07-24T03:47:54.545Z,12.00
2018-07-24T03:50:23.896Z,11.90
2018-07-24T03:52:53.219Z,11.90
2018-07-24T03:55:22.654Z,12.00
2018-07-24T03:57:52.011Z,12.00
2018-07-24T04:02:50.485Z,12.00
2018-07-24T04:05:19.814Z,12.00
2018-07-24T04:07:50.569Z,12.00
2018-07-24T04:10:21.169Z,12.10
2018-07-24T04:12:50.711Z,12.10
2018-07-24T04:15:19.970Z,12.20
2018-07-24T04:17:49.305Z,12.40
2018-07-24T04:20:18.637Z,12.40
2018-07-24T04:22:47.964Z,12.40
2018-07-24T04:25:17.321Z,12.40
2018-07-24T04:27:46.613Z,12.40
2018-07-24T04:30:15.949Z,12.40
2018-07-24T04:32:45.224Z,12.50
2018-07-24T04:35:14.503Z,12.50
2018-07-24T04:37:43.811Z,12.60
2018-07-24T04:42:41.983Z,12.80
2018-07-24T04:45:11.285Z,12.90
2018-07-24T04:47:40.588Z,12.90
2018-07-24T04:50:09.823Z,12.90
2018-07-24T04:52:39.110Z,12.90
2018-07-24T04:55:08.329Z,13.00
2018-07-24T04:57:37.571Z,13.10
2018-07-24T05:00:07.360Z,13.10
2018-07-24T05:02:36.708Z,13.20
2018-07-24T05:05:05.967Z,13.20
2018-07-24T05:07:35.967Z,13.30
2018-07-24T05:10:05.813Z,13.40
2018-07-24T05:12:35.057Z,13.50
2018-07-24T05:15:04.936Z,13.70
2018-07-24T05:17:35.100Z,13.70
2018-07-24T05:20:04.457Z,13.90
2018-07-24T05:22:34.758Z,14.10
2018-07-24T05:25:04.093Z,14.20
2018-07-24T05:27:33.351Z,14.40
2018-07-24T05:30:02.641Z,14.60
2018-07-24T05:32:31.937Z,14.70
2018-07-24T05:35:01.269Z,14.80
2018-07-24T05:37:30.558Z,14.90
2018-07-24T05:39:59.836Z,15.10
2018-07-24T05:42:29.114Z,15.30
2018-07-24T05:44:58.589Z,15.50
2018-07-24T05:47:27.845Z,15.60
2018-07-24T05:49:57.235Z,15.80
2018-07-24T05:52:26.506Z,16.00
2018-07-24T05:54:55.829Z,16.20
2018-07-24T05:57:25.158Z,16.40
2018-07-24T05:59:54.398Z,16.60
2018-07-24T06:02:23.745Z,16.80
2018-07-24T06:04:53.036Z,17.00
2018-07-24T06:07:22.305Z,17.20
2018-07-24T06:09:51.646Z,17.40
2018-07-24T06:12:20.955Z,17.60
2018-07-24T06:14:50.323Z,17.80
2018-07-24T06:17:19.659Z,18.00
2018-07-24T06:19:48.942Z,18.10
2018-07-24T06:22:18.324Z,18.30
2018-07-24T06:24:47.624Z,18.50
2018-07-24T06:27:17.018Z,18.60
2018-07-24T06:29:46.303Z,18.80
2018-07-24T06:32:15.568Z,18.90
2018-07-24T06:34:44.903Z,19.10
2018-07-24T06:37:14.192Z,19.30
2018-07-24T06:39:43.835Z,19.40
2018-07-24T06:42:13.152Z,19.60
2018-07-24T06:44:42.802Z,19.80
2018-07-24T06:47:12.076Z,20.00
2018-07-24T06:49:41.389Z,20.20
2018-07-24T06:52:10.814Z,20.40
2018-07-24T06:57:10.443Z,20.90
2018-07-24T06:59:39.876Z,21.10
2018-07-24T07:02:09.278Z,21.30
2018-07-24T07:04:38.776Z,21.50
2018-07-24T07:07:08.293Z,21.70
2018-07-24T07:09:37.577Z,22.00
2018-07-24T07:12:07.141Z,22.10
2018-07-24T07:14:36.559Z,22.30
2018-07-24T07:17:06.044Z,22.40
2018-07-24T07:19:35.306Z,22.50
2018-07-24T07:22:04.847Z,22.60
2018-07-24T07:24:34.327Z,22.70
2018-07-24T07:27:03.717Z,22.70
2018-07-24T07:29:33.098Z,22.80
2018-07-24T07:32:02.483Z,22.90
2018-07-24T07:34:31.794Z,23.00
2018-07-24T07:37:01.136Z,23.10
2018-07-24T07:39:30.583Z,23.20
2018-07-24T07:41:59.846Z,23.20
2018-07-24T07:44:29.151Z,23.30
2018-07-24T07:46:58.407Z,23.30
2018-07-24T07:49:27.642Z,23.50
2018-07-24T07:51:56.951Z,23.60
2018-07-24T07:54:26.339Z,23.80
2018-07-24T07:56:55.623Z,24.10
2018-07-24T07:59:24.978Z,24.40
2018-07-24T08:01:54.302Z,24.80
2018-07-24T08:04:24.516Z,25.20
2018-07-24T08:06:53.825Z,25.50
2018-07-24T08:09:23.236Z,25.70
2018-07-24T08:11:52.480Z,26.10
2018-07-24T08:14:21.817Z,26.40
2018-07-24T08:16:51.355Z,26.70
2018-07-24T08:19:20.660Z,27.00
2018-07-24T08:21:50.102Z,27.30
2018-07-24T08:24:19.388Z,27.60
2018-07-24T08:26:48.710Z,27.80
2018-07-24T08:29:18.156Z,28.10
2018-07-24T08:31:47.448Z,28.30
2018-07-24T08:34:16.803Z,28.50
2018-07-24T08:36:46.106Z,28.30
2018-07-24T08:39:15.454Z,28.00
2018-07-24T08:41:45.049Z,28.10
2018-07-24T08:44:14.442Z,28.30
2018-07-24T08:46:43.751Z,28.30
2018-07-24T08:49:13.247Z,28.20
2018-07-24T08:51:42.557Z,28.30
2018-07-24T08:54:12.131Z,28.30
2018-07-24T08:56:41.519Z,28.30
2018-07-24T08:59:10.801Z,28.10
2018-07-24T09:01:40.281Z,28.30
2018-07-24T09:04:09.922Z,28.50
2018-07-24T09:06:39.696Z,28.90
2018-07-24T09:09:11.028Z,28.50
2018-07-24T09:11:41.091Z,28.80
2018-07-24T09:14:14.209Z,28.80
2018-07-24T09:16:43.714Z,28.90
2018-07-24T09:19:13.078Z,29.00
2018-07-24T09:21:42.713Z,29.10
2018-07-24T09:24:12.070Z,28.90
2018-07-24T09:26:41.698Z,28.70
2018-07-24T09:29:11.152Z,28.90
2018-07-24T09:31:40.531Z,28.90
2018-07-24T09:34:09.908Z,28.90
2018-07-24T09:36:39.284Z,29.00
2018-07-24T09:39:09.685Z,28.80
2018-07-24T09:41:39.320Z,29.00
2018-07-24T09:44:08.683Z,29.00
2018-07-24T09:46:38.124Z,29.20
2018-07-24T09:49:07.523Z,29.10
2018-07-24T09:51:37.006Z,28.60
2018-07-24T09:54:06.410Z,28.00
2018-07-24T09:56:35.951Z,28.10
2018-07-24T09:59:12.490Z,28.30
2018-07-24T10:01:41.910Z,28.50
2018-07-24T10:04:11.363Z,28.70
2018-07-24T10:06:40.688Z,28.80
2018-07-24T10:09:10.835Z,28.60
2018-07-24T10:11:40.278Z,28.70
2018-07-24T10:14:10.611Z,28.90
2018-07-24T10:16:40.224Z,29.00
2018-07-24T10:19:09.390Z,28.60
2018-07-24T10:21:38.734Z,28.50
2018-07-24T10:24:08.112Z,28.60
2018-07-24T10:26:37.494Z,28.70
2018-07-24T10:29:06.893Z,28.70
2018-07-24T10:31:36.246Z,28.60
2018-07-24T10:34:05.660Z,29.00
2018-07-24T10:36:35.019Z,29.20
2018-07-24T10:39:06.999Z,28.70
2018-07-24T10:41:36.295Z,28.90
2018-07-24T10:44:05.610Z,29.20
2018-07-24T10:46:35.089Z,29.30
2018-07-24T10:49:04.418Z,29.40
2018-07-24T10:51:33.851Z,29.40
2018-07-24T10:54:03.316Z,29.50
2018-07-24T10:56:33.269Z,29.30
2018-07-24T10:59:02.753Z,29.70
2018-07-24T11:01:33.232Z,29.90
2018-07-24T11:04:02.629Z,30.10
2018-07-24T11:06:32.071Z,29.90
2018-07-24T11:09:01.595Z,29.70
2018-07-24T11:11:31.059Z,29.80
2018-07-24T11:14:00.368Z,29.80
2018-07-24T11:16:29.762Z,29.30
2018-07-24T11:18:59.119Z,29.30
2018-07-24T11:21:28.540Z,29.30
2018-07-24T11:23:57.841Z,29.40
2018-07-24T11:26:27.256Z,29.40
2018-07-24T11:28:56.603Z,29.50
2018-07-24T11:31:26.048Z,29.40
2018-07-24T11:33:55.464Z,29.60
2018-07-24T11:36:24.829Z,29.50
2018-07-24T11:38:54.247Z,29.70
2018-07-24T11:41:23.605Z,30.10
2018-07-24T11:43:53.085Z,30.00
2018-07-24T11:46:22.488Z,29.60
2018-07-24T11:48:52.102Z,29.60
2018-07-24T11:51:21.452Z,29.50
2018-07-24T11:53:50.844Z,29.80
2018-07-24T11:56:20.208Z,30.00
2018-07-24T11:58:49.688Z,30.00
2018-07-24T12:01:19.271Z,29.90
2018-07-24T12:03:49.038Z,29.80
2018-07-24T12:06:18.559Z,29.60
2018-07-24T12:08:47.951Z,29.30
2018-07-24T12:11:17.537Z,29.30
2018-07-24T12:13:46.872Z,29.40
2018-07-24T12:16:16.327Z,29.40
2018-07-24T12:18:45.662Z,29.80
2018-07-24T12:21:15.107Z,29.90
2018-07-24T12:23:44.729Z,30.00
2018-07-24T12:26:15.246Z,30.20
2018-07-24T12:28:44.763Z,30.60
2018-07-24T12:31:14.156Z,30.90
2018-07-24T12:33:43.649Z,31.10
2018-07-24T12:36:13.137Z,31.00
2018-07-24T12:38:42.646Z,30.80
2018-07-24T12:41:12.073Z,30.70
2018-07-24T12:43:41.545Z,31.10
2018-07-24T12:46:11.065Z,31.00
2018-07-24T12:48:40.429Z,31.30
2018-07-24T12:51:09.912Z,31.40
2018-07-24T12:53:39.384Z,31.70
2018-07-24T12:56:08.704Z,32.00
2018-07-24T12:58:38.019Z,31.30
2018-07-24T13:01:07.510Z,31.30
2018-07-24T13:03:37.003Z,31.40
2018-07-24T13:06:06.900Z,31.70
2018-07-24T13:08:36.234Z,32.10
2018-07-24T13:11:05.650Z,32.20
2018-07-24T13:13:34.908Z,32.30
2018-07-24T13:16:04.266Z,32.20
2018-07-24T13:18:33.686Z,32.30
2018-07-24T13:21:02.954Z,32.20
2018-07-24T13:23:32.340Z,32.60
2018-07-24T13:26:01.809Z,32.50
2018-07-24T13:28:31.179Z,32.50
2018-07-24T13:31:00.603Z,32.60
2018-07-24T13:33:31.481Z,32.80
2018-07-24T13:36:01.053Z,33.10
2018-07-24T13:38:30.350Z,33.20
2018-07-24T13:40:59.786Z,33.60
2018-07-24T13:43:29.102Z,33.90
2018-07-24T13:45:58.631Z,34.10
2018-07-24T13:48:28.218Z,34.10
2018-07-24T13:50:57.716Z,34.60
2018-07-24T13:53:27.147Z,34.80
2018-07-24T13:55:56.493Z,34.90
2018-07-24T13:58:25.869Z,34.70
2018-07-24T14:00:55.430Z,35.30
2018-07-24T14:03:24.866Z,34.50
2018-07-24T14:05:54.415Z,34.50
2018-07-24T14:08:23.805Z,33.60
2018-07-24T14:10:53.126Z,33.30
2018-07-24T14:13:22.607Z,33.00
2018-07-24T14:15:52.263Z,33.50
2018-07-24T14:18:21.882Z,34.00
2018-07-24T14:20:51.700Z,34.20
2018-07-24T14:23:21.256Z,34.90
2018-07-24T14:25:50.898Z,35.20
2018-07-24T14:28:20.505Z,35.70
2018-07-24T14:30:50.017Z,35.40
2018-07-24T14:33:19.385Z,35.00
2018-07-24T14:35:48.918Z,35.40
2018-07-24T14:38:18.313Z,35.60
2018-07-24T14:40:48.651Z,35.10
2018-07-24T14:43:18.454Z,34.80
2018-07-24T14:45:48.027Z,34.20
2018-07-24T14:48:17.486Z,34.70
2018-07-24T14:50:46.926Z,35.00
2018-07-24T14:53:16.269Z,34.60
2018-07-24T14:55:45.725Z,34.10
2018-07-24T14:58:15.079Z,34.60
2018-07-24T15:00:45.397Z,34.90
2018-07-24T15:03:14.804Z,35.20
2018-07-24T15:05:44.276Z,35.90
2018-07-24T15:08:13.703Z,36.40
2018-07-24T15:10:43.036Z,37.00
2018-07-24T15:13:12.413Z,37.10
2018-07-24T15:15:41.742Z,37.50
2018-07-24T15:18:11.326Z,37.00
2018-07-24T15:20:40.751Z,36.90
2018-07-24T15:23:10.148Z,36.50
2018-07-24T15:25:39.844Z,36.70
2018-07-24T15:28:09.327Z,36.90
2018-07-24T15:30:38.720Z,37.00
2018-07-24T15:33:08.150Z,37.10
2018-07-24T15:35:37.883Z,37.30
2018-07-24T15:38:07.712Z,37.40
2018-07-24T15:40:37.117Z,37.20
2018-07-24T15:43:07.571Z,37.00
2018-07-24T15:45:37.656Z,37.50
2018-07-24T15:48:07.278Z,37.40
2018-07-24T15:50:36.678Z,36.90
2018-07-24T15:53:06.256Z,36.20
2018-07-24T15:55:36.714Z,35.70
2018-07-24T15:58:07.223Z,35.50
2018-07-24T16:00:36.586Z,35.60
2018-07-24T16:03:06.413Z,35.90
2018-07-24T16:05:36.176Z,36.50
2018-07-24T16:08:06.097Z,36.40
2018-07-24T16:10:35.519Z,37.00
2018-07-24T16:13:05.360Z,37.20
2018-07-24T16:15:34.985Z,37.00
2018-07-24T16:18:04.421Z,36.90
2018-07-24T16:20:33.974Z,37.10
2018-07-24T16:23:03.486Z,37.30
2018-07-24T16:25:33.110Z,37.30
2018-07-24T16:28:02.615Z,36.70
2018-07-24T16:30:32.117Z,37.20
2018-07-24T16:33:01.680Z,37.30
2018-07-24T16:35:31.098Z,37.20
2018-07-24T16:38:00.538Z,35.70
2018-07-24T16:40:29.870Z,34.40
2018-07-24T16:42:59.243Z,32.80
2018-07-24T16:45:28.634Z,31.70
2018-07-24T16:47:57.918Z,31.00
2018-07-24T16:50:27.296Z,30.30
2018-07-24T16:52:56.620Z,29.90
2018-07-24T16:55:26.045Z,29.50
2018-07-24T16:57:55.355Z,29.30
2018-07-24T17:00:25.823Z,29.10
2018-07-24T17:02:55.337Z,29.40
2018-07-24T17:05:24.624Z,29.60
2018-07-24T17:07:54.079Z,29.30
2018-07-24T17:10:23.543Z,28.90
2018-07-24T17:12:52.942Z,28.80
2018-07-24T17:15:22.298Z,29.40
2018-07-24T17:17:51.739Z,29.70
2018-07-24T17:20:21.194Z,29.50
2018-07-24T17:22:50.609Z,29.30
2018-07-24T17:25:19.990Z,29.50
2018-07-24T17:27:49.456Z,29.70
2018-07-24T17:30:18.772Z,29.90
2018-07-24T17:32:48.100Z,30.10
2018-07-24T17:35:17.450Z,29.70
2018-07-24T17:37:46.784Z,29.20
2018-07-24T17:40:16.130Z,28.60
2018-07-24T17:42:45.634Z,28.20
2018-07-24T17:45:14.952Z,27.70
2018-07-24T17:47:44.297Z,27.40
2018-07-24T17:50:13.813Z,27.30
2018-07-24T17:52:43.228Z,27.10
2018-07-24T17:55:12.541Z,27.20
2018-07-24T17:57:42.210Z,27.70
2018-07-24T18:00:11.557Z,27.80
2018-07-24T18:02:40.877Z,28.00
2018-07-24T18:05:10.425Z,28.40
2018-07-24T18:07:39.952Z,28.70
2018-07-24T18:10:09.595Z,28.90
2018-07-24T18:12:39.248Z,29.60
2018-07-24T18:15:08.531Z,29.80
2018-07-24T18:17:38.071Z,30.00
2018-07-24T18:20:07.693Z,30.10
2018-07-24T18:22:39.180Z,29.70
2018-07-24T18:25:08.968Z,29.30
2018-07-24T18:27:38.252Z,29.10
2018-07-24T18:30:07.645Z,29.00
2018-07-24T18:32:38.036Z,28.80
2018-07-24T18:35:07.662Z,28.30
2018-07-24T18:37:36.976Z,27.70
2018-07-24T18:40:06.452Z,27.10
2018-07-24T18:42:36.262Z,26.50
2018-07-24T18:45:06.193Z,26.00
2018-07-24T18:47:35.634Z,25.60
2018-07-24T18:50:05.110Z,25.20
2018-07-24T18:52:34.455Z,24.90
2018-07-24T18:55:03.728Z,24.60
2018-07-24T18:57:33.467Z,24.30
2018-07-24T19:00:02.897Z,24.10
2018-07-24T19:02:32.247Z,23.70
2018-07-24T19:05:01.800Z,23.50
2018-07-24T19:07:31.390Z,23.20
2018-07-24T19:10:01.259Z,23.00
2018-07-24T19:12:31.674Z,22.80
2018-07-24T19:15:01.374Z,22.70
2018-07-24T19:17:31.209Z,22.50
2018-07-24T19:20:00.573Z,22.30
2018-07-24T19:22:29.926Z,22.10
2018-07-24T19:24:59.323Z,21.90
2018-07-24T19:27:28.609Z,21.80
2018-07-24T19:29:57.938Z,21.60
2018-07-24T19:32:27.365Z,21.50
2018-07-24T19:34:56.804Z,21.30
2018-07-24T19:37:26.145Z,21.10
2018-07-24T19:39:55.418Z,21.00
2018-07-24T19:42:24.885Z,20.90
2018-07-24T19:44:54.206Z,20.80
2018-07-24T19:47:23.593Z,20.70
2018-07-24T19:49:52.988Z,20.60
2018-07-24T19:52:22.361Z,20.50
2018-07-24T19:54:51.618Z,20.40
2018-07-24T19:57:20.960Z,20.40
2018-07-24T19:59:50.250Z,20.30
2018-07-24T20:02:19.655Z,20.20
2018-07-24T20:04:48.901Z,20.10
2018-07-24T20:07:18.225Z,20.10
2018-07-24T20:09:49.873Z,19.90
2018-07-24T20:12:19.928Z,19.80
2018-07-24T20:14:49.444Z,19.80
2018-07-24T20:17:19.036Z,19.70
2018-07-24T20:19:48.395Z,19.50
2018-07-24T20:22:18.067Z,19.50
2018-07-24T20:24:47.372Z,19.40
2018-07-24T20:27:16.769Z,19.50
2018-07-24T20:29:46.073Z,19.40
2018-07-24T20:32:15.426Z,19.30
2018-07-24T20:34:44.811Z,19.30
2018-07-24T20:37:14.149Z,19.20
2018-07-24T20:39:43.472Z,19.10
2018-07-24T20:42:12.798Z,18.90
2018-07-24T20:44:42.186Z,18.80
2018-07-24T20:47:11.609Z,18.70
2018-07-24T20:49:41.243Z,18.60
2018-07-24T20:52:10.701Z,18.50
2018-07-24T20:54:40.076Z,18.60
2018-07-24T20:57:09.482Z,18.40
2018-07-24T20:59:38.722Z,18.40
2018-07-24T21:02:08.024Z,18.40
2018-07-24T21:04:37.306Z,18.30
2018-07-24T21:07:06.621Z,18.30
2018-07-24T21:09:36.057Z,18.20
2018-07-24T21:12:05.310Z,18.10
2018-07-24T21:14:35.050Z,18.10
2018-07-24T21:17:04.467Z,18.00
2018-07-24T21:19:33.789Z,17.90
2018-07-24T21:22:03.313Z,17.80
2018-07-24T21:24:32.740Z,17.80
2018-07-24T21:27:02.050Z,17.70
2018-07-24T21:29:31.477Z,17.80
2018-07-24T21:32:00.791Z,17.80
2018-07-24T21:34:30.157Z,17.70
2018-07-24T21:36:59.469Z,17.60
2018-07-24T21:39:28.770Z,17.50
2018-07-24T21:41:58.184Z,17.50
2018-07-24T21:44:27.483Z,17.40
2018-07-24T21:46:56.991Z,17.40
2018-07-24T21:49:26.336Z,17.30
2018-07-24T21:51:56.054Z,17.30
2018-07-24T21:54:25.509Z,17.20
2018-07-24T21:56:54.866Z,17.10
2018-07-24T21:59:24.171Z,17.10
2018-07-24T22:01:53.581Z,17.10
2018-07-24T22:04:22.823Z,17.10
2018-07-24T22:06:52.325Z,17.10
2018-07-24T22:09:21.769Z,17.00
2018-07-24T22:11:51.131Z,17.00
2018-07-24T22:14:20.597Z,17.00
2018-07-24T22:16:50.234Z,16.90
2018-07-24T22:19:19.925Z,16.90
2018-07-24T22:21:49.370Z,16.80
2018-07-24T22:24:18.613Z,16.70
2018-07-24T22:26:48.129Z,16.70
2018-07-24T22:29:17.557Z,16.70
2018-07-24T22:31:46.962Z,16.60
2018-07-24T22:34:16.349Z,16.60
2018-07-24T22:36:45.821Z,16.50
2018-07-24T22:39:15.237Z,16.50
2018-07-24T22:41:44.729Z,16.40
2018-07-24T22:44:14.044Z,16.40
2018-07-24T22:46:43.388Z,16.40
2018-07-24T22:49:12.710Z,16.40
2018-07-24T22:51:42.108Z,16.40
2018-07-24T22:54:11.468Z,16.30
2018-07-24T22:56:40.867Z,16.30
2018-07-24T22:59:10.069Z,16.30
2018-07-24T23:01:39.463Z,16.30
2018-07-24T23:04:08.794Z,16.20
2018-07-24T23:06:38.103Z,16.20
2018-07-24T23:09:09.196Z,16.10
2018-07-24T23:11:39.042Z,16.10
2018-07-24T23:14:08.441Z,16.10
2018-07-24T23:16:37.818Z,16.10
2018-07-24T23:19:07.045Z,16.10
2018-07-24T23:21:36.566Z,16.10
2018-07-24T23:24:05.901Z,16.10
2018-07-24T23:26:35.366Z,16.10
2018-07-24T23:29:04.753Z,16.00
2018-07-24T23:31:34.222Z,15.90
2018-07-24T23:34:03.481Z,15.90
2018-07-24T23:36:32.884Z,15.80
2018-07-24T23:39:02.212Z,15.80
2018-07-24T23:41:31.655Z,15.80
2018-07-24T23:44:01.009Z,15.80
2018-07-24T23:46:30.347Z,15.80
2018-07-24T23:48:59.822Z,15.70
2018-07-24T23:51:29.188Z,15.70
2018-07-24T23:53:58.516Z,15.70
2018-07-24T23:56:27.789Z,15.80
2018-07-24T23:58:57.041Z,15.70
